»·PEaware :: SNW365 KHOU-KLAS

SNW365 :: KHOU-KLAS

FLIGHT INFORMATION

Flight Status: Arrived
Operator: Unknown
More flights by this operator :: More flights under this callsign
Pilot: Andrew D. (25626)
Aircraft: BOEING 737-800
(B738)
More flights by this aircraft type
Origin: KHOU Hobby
United States
Destination: KLAS McCarran Intl
United States
More flights between these airports :: More routes between these airports
Route: +RETYR5 JCT Q20 CNX INW PGS TYSSN5
File this flight plan on PilotEdge
Remarks: RMK / CALLSIGN "SUNWEST"
Altitude:
(Current/Filed)
36,000ft
Speed:
(Current/Filed)
465kts
Departed: 30-Oct-19 12:04 PM
Arrived: 30-Oct-19 03:14 PM
Distance/Time
Traveled:
1070nm/3:10
Distance/Time
To Go:
Arrived

Flight Plot

Page will automatically refresh every two minutes.

Flight plan parsing failed; only flown route is shown


Map Options




Map Legend


Flown Route
Filed Route
Departure Airport
Arrival Airport
Navaid (VOR, NDB)
Fix

Horizontal Profiles

Position Reports

Time Latitude Longitude Heading Altitude Ground
Speed
30-Oct-19 11:30 29.652875 -95.274283 265 54ft 0kts
30-Oct-19 11:31 29.652875 -95.274283 265 54ft 0kts
30-Oct-19 11:32 29.652875 -95.274283 265 53ft 0kts
30-Oct-19 11:33 29.652875 -95.274283 265 53ft 0kts
30-Oct-19 11:34 29.652875 -95.274283 265 53ft 0kts
30-Oct-19 11:35 29.652875 -95.274283 265 53ft 0kts
30-Oct-19 11:36 29.652875 -95.274283 265 53ft 0kts
30-Oct-19 11:37 29.652875 -95.274283 265 53ft 0kts
30-Oct-19 11:38 29.652875 -95.274283 265 53ft 0kts
30-Oct-19 11:39 29.652875 -95.274283 265 53ft 0kts
30-Oct-19 11:40 29.652875 -95.274283 265 53ft 0kts
30-Oct-19 11:41 29.652875 -95.274283 265 53ft 0kts
30-Oct-19 11:42 29.652875 -95.274283 265 53ft 0kts
30-Oct-19 11:43 29.652875 -95.274283 265 53ft 0kts
30-Oct-19 11:44 29.652875 -95.274283 265 53ft 0kts
30-Oct-19 11:45 29.652875 -95.274283 265 53ft 0kts
30-Oct-19 11:46 29.652875 -95.274283 265 53ft 0kts
30-Oct-19 11:47 29.652875 -95.274283 265 53ft 0kts
30-Oct-19 11:48 29.652875 -95.274283 265 53ft 0kts
30-Oct-19 11:49 29.652875 -95.274283 265 53ft 0kts
30-Oct-19 11:50 29.652875 -95.274283 265 53ft 0kts
30-Oct-19 11:51 29.652875 -95.274283 265 53ft 0kts
30-Oct-19 11:52 29.652875 -95.274283 265 53ft 0kts
30-Oct-19 11:53 29.652875 -95.274283 265 53ft 0kts
30-Oct-19 11:54 29.652875 -95.274283 265 53ft 0kts
30-Oct-19 11:55 29.652875 -95.274283 265 53ft 0kts
30-Oct-19 11:56 29.652875 -95.274283 265 53ft 0kts
30-Oct-19 11:57 29.652875 -95.274283 265 53ft 0kts
30-Oct-19 11:58 29.652985 -95.273818 227 53ft 2kts
30-Oct-19 11:59 29.653302 -95.273900 133 53ft 0kts
30-Oct-19 12:00 29.653302 -95.273900 133 53ft 0kts
30-Oct-19 12:01 29.652819 -95.273314 133 53ft 8kts
30-Oct-19 12:02 29.654638 -95.270630 48 53ft 14kts
30-Oct-19 12:03 29.649164 -95.274205 224 54ft 106kts
30-Oct-19 12:04 29.615110 -95.309730 224 2161ft 187kts
30-Oct-19 12:05 29.613760 -95.378724 287 4080ft 264kts
30-Oct-19 12:06 29.635117 -95.458586 285 7805ft 270kts
30-Oct-19 12:07 29.658102 -95.545200 282 10884ft 288kts
30-Oct-19 12:08 29.683873 -95.643525 282 12335ft 356kts
30-Oct-19 12:09 29.713635 -95.757273 282 14589ft 377kts
30-Oct-19 12:10 29.761782 -95.867849 296 16969ft 395kts
30-Oct-19 12:11 29.818664 -95.977168 295 19062ft 402kts
30-Oct-19 12:12 29.876341 -96.089539 294 20916ft 411kts
30-Oct-19 12:13 29.931322 -96.205707 284 22515ft 412kts
30-Oct-19 12:14 29.956940 -96.333764 275 23931ft 413kts
30-Oct-19 12:15 29.977433 -96.465624 275 25148ft 420kts
30-Oct-19 12:16 29.997982 -96.599109 276 26233ft 427kts
30-Oct-19 12:17 30.018707 -96.734318 275 27376ft 430kts
30-Oct-19 12:18 30.039375 -96.870917 275 28426ft 433kts
30-Oct-19 12:19 30.059965 -97.006695 275 29889ft 426kts
30-Oct-19 12:20 30.080263 -97.140646 275 31388ft 419kts
30-Oct-19 12:21 30.100005 -97.272715 275 32888ft 413kts
30-Oct-19 12:22 30.119303 -97.402284 275 34275ft 407kts
30-Oct-19 12:23 30.138226 -97.530376 274 35499ft 404kts
30-Oct-19 12:24 30.156803 -97.658450 274 36116ft 404kts
30-Oct-19 12:25 30.176616 -97.785383 278 36121ft 404kts
30-Oct-19 12:26 30.203351 -97.911777 278 36128ft 404kts
30-Oct-19 12:27 30.229653 -98.038125 278 36131ft 404kts
30-Oct-19 12:28 30.255707 -98.164580 278 36132ft 403kts
30-Oct-19 12:29 30.281252 -98.290723 277 36144ft 403kts
30-Oct-19 12:30 30.307267 -98.416867 278 36156ft 401kts
30-Oct-19 12:31 30.333867 -98.542155 278 36164ft 400kts
30-Oct-19 12:32 30.360280 -98.667520 278 36162ft 399kts
30-Oct-19 12:33 30.386619 -98.792333 278 36156ft 399kts
30-Oct-19 12:34 30.412917 -98.916691 278 36160ft 398kts
30-Oct-19 12:35 30.439016 -99.041394 278 36161ft 396kts
30-Oct-19 12:36 30.464742 -99.165137 278 36170ft 395kts
30-Oct-19 12:37 30.490416 -99.289358 278 36185ft 395kts
30-Oct-19 12:38 30.515869 -99.413099 277 36195ft 395kts
30-Oct-19 12:39 30.541503 -99.537456 277 36205ft 395kts
30-Oct-19 12:40 30.566652 -99.661361 277 36208ft 395kts
30-Oct-19 12:41 30.591680 -99.785512 278 36209ft 395kts
30-Oct-19 12:42 30.632837 -99.905912 287 36209ft 403kts
30-Oct-19 12:44 30.678878 -100.024707 287 36219ft 403kts
30-Oct-19 12:45 30.724507 -100.142797 287 36228ft 401kts
30-Oct-19 12:46 30.770392 -100.260948 287 36237ft 400kts
30-Oct-19 12:47 30.815915 -100.378639 287 36244ft 399kts
30-Oct-19 12:48 30.861226 -100.496399 286 36248ft 398kts
30-Oct-19 12:49 30.906085 -100.613460 286 36254ft 396kts
30-Oct-19 12:50 30.950911 -100.730843 286 36258ft 395kts
30-Oct-19 12:51 30.995583 -100.848220 286 36259ft 395kts
30-Oct-19 12:52 31.039951 -100.965189 286 36259ft 394kts
30-Oct-19 12:53 31.084177 -101.081616 286 36260ft 392kts
30-Oct-19 12:54 31.128144 -101.198549 286 36261ft 392kts
30-Oct-19 12:55 31.173305 -101.314523 291 36260ft 397kts
30-Oct-19 12:56 31.241206 -101.419216 299 36261ft 407kts
30-Oct-19 12:57 31.312474 -101.521660 299 36264ft 405kts
30-Oct-19 12:58 31.383435 -101.623581 299 36289ft 404kts
30-Oct-19 12:59 31.454841 -101.725606 299 36292ft 403kts
30-Oct-19 13:00 31.525786 -101.827335 299 36293ft 403kts
30-Oct-19 13:01 31.596445 -101.929038 299 36294ft 402kts
30-Oct-19 13:02 31.666815 -102.030624 299 36293ft 401kts
30-Oct-19 13:02 31.725640 -102.115757 298 36293ft 401kts
30-Oct-19 13:04 31.807290 -102.234257 298 36293ft 401kts
30-Oct-19 13:05 31.877422 -102.336336 298 36297ft 401kts
30-Oct-19 13:05 31.936016 -102.421829 298 36299ft 401kts
30-Oct-19 13:06 32.006025 -102.524222 298 36302ft 401kts
30-Oct-19 13:08 32.087219 -102.643338 298 36310ft 399kts
30-Oct-19 13:08 32.145055 -102.728407 298 36317ft 398kts
30-Oct-19 13:09 32.214203 -102.830384 298 36328ft 397kts
30-Oct-19 13:10 32.283038 -102.932162 298 36328ft 397kts
30-Oct-19 13:11 32.351828 -103.034153 298 36326ft 396kts
30-Oct-19 13:12 32.420357 -103.136033 298 36321ft 396kts
30-Oct-19 13:13 32.488769 -103.238015 298 36314ft 396kts
30-Oct-19 13:14 32.557165 -103.340251 297 36311ft 395kts
30-Oct-19 13:15 32.625381 -103.442501 297 36312ft 395kts
30-Oct-19 13:16 32.693533 -103.544934 297 36317ft 395kts
30-Oct-19 13:17 32.761631 -103.647412 297 36319ft 394kts
30-Oct-19 13:18 32.829397 -103.749667 297 36324ft 394kts
30-Oct-19 13:19 32.896926 -103.852223 297 36326ft 393kts
30-Oct-19 13:20 32.964480 -103.954481 298 36329ft 394kts
30-Oct-19 13:21 33.033149 -104.055792 297 36330ft 390kts
30-Oct-19 13:22 33.101192 -104.156649 297 36328ft 390kts
30-Oct-19 13:23 33.168946 -104.257343 298 36323ft 388kts
30-Oct-19 13:24 33.236687 -104.357682 297 36315ft 387kts
30-Oct-19 13:25 33.304168 -104.458223 297 36310ft 387kts
30-Oct-19 13:26 33.371361 -104.558618 297 36309ft 387kts
30-Oct-19 13:27 33.438462 -104.659029 297 36308ft 386kts
30-Oct-19 13:28 33.505214 -104.759639 297 36305ft 385kts
30-Oct-19 13:29 33.574374 -104.859044 305 36300ft 398kts
30-Oct-19 13:30 33.658537 -104.946185 306 36295ft 400kts
30-Oct-19 13:31 33.743154 -105.032991 306 36291ft 399kts
30-Oct-19 13:32 33.827662 -105.119847 307 36288ft 400kts
30-Oct-19 13:33 33.912166 -105.206396 306 36289ft 399kts
30-Oct-19 13:34 33.996703 -105.293447 306 36283ft 399kts
30-Oct-19 13:35 34.080406 -105.379944 306 36280ft 396kts
30-Oct-19 13:36 34.164191 -105.466558 306 36263ft 396kts
30-Oct-19 13:37 34.247879 -105.553570 306 36259ft 395kts
30-Oct-19 13:38 34.331223 -105.640604 305 36255ft 395kts
30-Oct-19 13:39 34.372703 -105.750018 276 36259ft 354kts
30-Oct-19 13:40 34.393975 -105.866349 275 36263ft 353kts
30-Oct-19 13:41 34.413328 -105.982998 275 36265ft 353kts
30-Oct-19 13:42 34.431859 -106.099715 275 36288ft 353kts
30-Oct-19 13:43 34.450417 -106.216851 275 36293ft 354kts
30-Oct-19 13:44 34.468519 -106.333802 275 36295ft 353kts
30-Oct-19 13:45 34.486448 -106.451207 275 36298ft 355kts
30-Oct-19 13:46 34.504225 -106.568910 275 36301ft 355kts
30-Oct-19 13:47 34.521900 -106.686850 275 36311ft 356kts
30-Oct-19 13:48 34.539498 -106.805179 275 36311ft 356kts
30-Oct-19 13:49 34.556958 -106.923404 275 36316ft 356kts
30-Oct-19 13:50 34.574324 -107.041851 275 36312ft 356kts
30-Oct-19 13:51 34.591616 -107.160580 275 36312ft 357kts
30-Oct-19 13:52 34.608805 -107.279493 275 36315ft 357kts
30-Oct-19 13:53 34.625827 -107.398091 275 36322ft 357kts
30-Oct-19 13:54 34.642804 -107.517230 275 36325ft 357kts
30-Oct-19 13:55 34.659637 -107.636213 275 36328ft 357kts
30-Oct-19 13:56 34.676384 -107.755471 275 36331ft 358kts
30-Oct-19 13:57 34.692998 -107.874635 275 36333ft 358kts
30-Oct-19 13:58 34.709489 -107.993798 275 36339ft 358kts
30-Oct-19 13:59 34.725977 -108.113858 276 36340ft 361kts
30-Oct-19 14:00 34.742365 -108.234093 276 36342ft 361kts
30-Oct-19 14:01 34.758718 -108.354884 276 36343ft 362kts
30-Oct-19 14:02 34.774941 -108.475806 276 36345ft 362kts
30-Oct-19 14:03 34.791071 -108.596885 276 36346ft 363kts
30-Oct-19 14:04 34.807144 -108.718543 276 36348ft 364kts
30-Oct-19 14:05 34.823087 -108.840146 276 36350ft 364kts
30-Oct-19 14:06 34.838972 -108.962294 276 36351ft 365kts
30-Oct-19 14:07 34.854741 -109.084533 277 36355ft 366kts
30-Oct-19 14:08 34.870403 -109.206916 277 36364ft 367kts
30-Oct-19 14:09 34.886025 -109.330028 277 36370ft 367kts
30-Oct-19 14:10 34.901519 -109.453135 277 36378ft 368kts
30-Oct-19 14:11 34.916935 -109.576664 277 36383ft 368kts
30-Oct-19 14:12 34.932218 -109.700192 277 36388ft 369kts
30-Oct-19 14:13 34.947375 -109.823732 277 36394ft 369kts
30-Oct-19 14:14 34.962458 -109.947729 277 36400ft 369kts
30-Oct-19 14:15 34.977437 -110.072097 277 36408ft 374kts
30-Oct-19 14:16 34.992482 -110.197867 277 36413ft 374kts
30-Oct-19 14:17 35.007398 -110.323881 277 36421ft 375kts
30-Oct-19 14:18 35.022343 -110.449693 278 36429ft 376kts
30-Oct-19 14:19 35.037064 -110.575959 277 36436ft 376kts
30-Oct-19 14:20 35.051522 -110.702678 277 36439ft 377kts
30-Oct-19 14:21 35.068575 -110.828876 283 36437ft 378kts
30-Oct-19 14:22 35.095799 -110.953487 283 36427ft 379kts
30-Oct-19 14:23 35.122676 -111.077886 283 36410ft 380kts
30-Oct-19 14:24 35.149385 -111.202968 284 36391ft 381kts
30-Oct-19 14:25 35.176484 -111.328333 284 36372ft 382kts
30-Oct-19 14:26 35.203311 -111.454196 284 36357ft 383kts
30-Oct-19 14:27 35.229957 -111.580326 284 36352ft 383kts
30-Oct-19 14:28 35.256468 -111.706645 284 36349ft 383kts
30-Oct-19 14:29 35.282907 -111.833436 284 36347ft 383kts
30-Oct-19 14:30 35.309084 -111.959673 284 36348ft 384kts
30-Oct-19 14:31 35.335388 -112.087305 285 36343ft 388kts
30-Oct-19 14:32 35.361617 -112.215280 285 36340ft 387kts
30-Oct-19 14:33 35.387760 -112.343577 285 36342ft 387kts
30-Oct-19 14:34 35.413735 -112.471798 284 36350ft 388kts
30-Oct-19 14:35 35.439700 -112.600673 284 36359ft 390kts
30-Oct-19 14:36 35.465525 -112.729722 284 36365ft 390kts
30-Oct-19 14:37 35.491259 -112.859051 284 36370ft 391kts
30-Oct-19 14:38 35.516955 -112.988956 284 36373ft 392kts
30-Oct-19 14:39 35.542458 -113.118692 285 34539ft 391kts
30-Oct-19 14:40 35.568251 -113.249474 286 31354ft 397kts
30-Oct-19 14:41 35.594029 -113.382630 287 28274ft 397kts
30-Oct-19 14:42 35.619059 -113.512989 288 25765ft 387kts
30-Oct-19 14:43 35.639550 -113.642211 286 23281ft 382kts
30-Oct-19 14:44 35.657244 -113.769729 286 20859ft 375kts
30-Oct-19 14:45 35.674779 -113.895447 285 18469ft 369kts
30-Oct-19 14:46 35.692342 -114.020114 285 15856ft 369kts
30-Oct-19 14:47 35.709614 -114.143337 283 13593ft 361kts
30-Oct-19 14:48 35.725096 -114.256368 283 12768ft 303kts
30-Oct-19 14:49 35.738588 -114.352335 291 12148ft 277kts
30-Oct-19 14:50 35.797632 -114.409033 337 11601ft 279kts
30-Oct-19 14:51 35.870356 -114.443297 340 11109ft 279kts
30-Oct-19 14:52 35.943135 -114.477325 340 10623ft 278kts
30-Oct-19 14:53 35.994696 -114.532496 266 10052ft 264kts
30-Oct-19 14:54 35.972412 -114.621644 252 8655ft 277kts
30-Oct-19 14:55 35.949031 -114.710715 252 8007ft 264kts
30-Oct-19 14:56 35.925294 -114.801174 252 8017ft 286kts
30-Oct-19 14:57 35.900733 -114.894745 252 8011ft 286kts
30-Oct-19 14:59 35.876223 -114.987965 252 8012ft 286kts
30-Oct-19 15:00 35.851734 -115.081133 252 8014ft 286kts
30-Oct-19 15:01 35.827383 -115.174317 252 8014ft 286kts
30-Oct-19 15:02 35.825138 -115.265277 318 7993ft 279kts
30-Oct-19 15:03 35.899228 -115.266172 12 7105ft 278kts
30-Oct-19 15:04 35.971693 -115.229619 24 4746ft 279kts
30-Oct-19 15:05 36.036639 -115.192633 23 4162ft 232kts
30-Oct-19 15:06 36.090597 -115.158649 44 4626ft 208kts
30-Oct-19 15:07 36.089908 -115.094438 123 5941ft 215kts
30-Oct-19 15:08 36.035154 -115.095272 202 6029ft 219kts
30-Oct-19 15:09 35.978133 -115.124885 202 5154ft 220kts
30-Oct-19 15:10 35.964944 -115.180316 296 4740ft 198kts
30-Oct-19 15:11 36.000428 -115.211037 15 4038ft 155kts
30-Oct-19 15:12 36.037768 -115.191861 26 3158ft 139kts
30-Oct-19 15:13 36.073035 -115.171715 26 2326ft 140kts
30-Oct-19 15:14 36.092794 -115.160361 24 2189ft 23kts
30-Oct-19 15:15 36.092294 -115.155861 116 2189ft 16kts
30-Oct-19 15:16 36.087347 -115.157781 204 2189ft 25kts
30-Oct-19 15:16 36.082603 -115.155551 155 2189ft 21kts
30-Oct-19 15:18 36.078716 -115.150051 94 2189ft 19kts
30-Oct-19 15:19 36.078283 -115.143542 94 2189ft 18kts
30-Oct-19 15:20 36.081595 -115.141579 359 2189ft 17kts
30-Oct-19 15:20 36.084158 -115.139697 88 2189ft 12kts
30-Oct-19 15:22 36.083441 -115.139218 180 2189ft 0kts
30-Oct-19 15:23 36.083441 -115.139218 180 2189ft 0kts
30-Oct-19 15:23 36.083441 -115.139218 180 2189ft 0kts
30-Oct-19 15:24 36.083441 -115.139218 180 2189ft 0kts

Navigation Log

Ident Type
Flight plan parsing failed, navigation log unavailable